Terminal Aerodrome Forecast
Issued by NWS

Home | Current Version | Previous Version | Graphics & Text | Print | Product List | Glossary On
Versions: 1 2 3 4 5 6 7 8 9 10 11 12 13 14 15 16 17
000
FTUS43 KBIS 260521
TAFDIK
TAF
KDIK 260521Z 2606/2706 10007KT P6SM SKC
     FM260800 13006KT P6SM SKC
     FM261300 16009KT P6SM SKC
     FM270300 15015KT P6SM SKC=

USA.gov is the U.S. government's official web portal to all federal, state and local government web resources and services.